Ashburn, VA (20147)

1:58 AM EST on February 18, 2018 (GMT -0500)
Belmont CC | | Change Station
Active Advisory: Special Statement

Elev 325 ft 39.06 °N, 77.49 °W | Updated 6 seconds ago

Overcast
Overcast
32.5 °F
Feels Like 32 °F
N
0.0
Wind Variable Wind from SSE

Today
High -- | Low -- °F
--% Chance of Precip.
Yesterday
High -- | Low -- °F
Precip. -- in
Pressure 30.06 in
Visibility 2.5 miles
Clouds Mostly Cloudy 200 ft
Overcast 2800 ft
Windchill 32 °F
Dew Point 32 °F
Humidity 99%
Rainfall 0.00 in
Snow Depth Not available.
6:57 AM 5:50 PM
Waxing Crescent, 6% visible
METAR KJYO 180635Z AUTO 00000KT 2 1/2SM BR BKN002 OVC028 00/00 A3006 RMK AO2
Pressure 30.06 in
Visibility 2.5 miles
Clouds Mostly Cloudy 200 ft
Overcast 2800 ft
Windchill 32 °F
Dew Point 32 °F
Humidity 99%
Rainfall 0.00 in
Snow Depth Not available.
6:57 AM 5:50 PM
Waxing Crescent, 6% visible
METAR KJYO 180635Z AUTO 00000KT 2 1/2SM BR BKN002 OVC028 00/00 A3006 RMK AO2

Get Your Daily Forecast Email!

Thanks for signing up!

Be on the lookout for a verification email in your inbox.

You'll start receiving severe weather alerts in your inbox..

×

10-Day Weather Forecast

Almanac

Astronomy

Feb. 18, 2018 Rise Set
Actual Time
Civil Twilight
Nautical Twilight
Astronomical Twilight
Moon
Length of Visible Light
Length of Day
Tomorrow will be .
, % of the Moon is Illuminated

Today's Extremes

State Highs State Lows

Community

WunderPhotos

Category 6

Welcome to Category 6. This is the collective home for Weather Underground's featured writeups by Dr. Jeff Masters (right), Bob Henson (left), Chris Burt, and other regular contributors.

Nearby

Air Quality

  Air Quality AQ Index Pollutant
Not available.

Snow Depth

Station Depth Elevation

Earthquake Activity

City Distance Mag. Time & Date
Minimum magnitude displayed is 2.5.

Coastal Water Temperatures

Place Temperature

Stations

Nearby Weather Stations

Station Location Temp. Windchill Dew Point Humidity Wind Precip. Elev Updated Type
                   

Watches & Warnings

Special Statement
Issued: 11:00 PM EST Feb. 17, 2018 – National Weather Service

... Slippery driving conditions likely overnight...

Wet ground with areas of snow and slush... combined with
temperatures nearly steady in the lower 30s... will result in
areas of ice across the region overnight.

Motorists should exercise caution and allow extra time to get to
their destinations. Pedestrians should also be careful while
walking. Roads may appear wet but can actually be icy.


Hts


1100 PM EST Sat Feb 17 2018

... Slippery driving conditions likely overnight...

Wet ground with areas of snow and slush... combined with
temperatures nearly steady in the lower 30s... will result in
areas of ice across the region overnight.

Motorists should exercise caution and allow extra time to get to
their destinations. Pedestrians should also be careful while
walking. Roads may appear wet but can actually be icy.


Hts